M/T Vemaoil Xi — 9HWD7 — position and weather

sailwx.info

Track history (hours):
 
Tides and Currents Weather Stations Pressure Air Temp Water Temp Dewpoint Dewpoint Depression Visibility Wind Speed Wind Dir Waves Ship Positions

M/T Vemaoil Xi

Last reported at 2017-Feb-28 04:33 UTC. Time now 2017-Feb-28 05:39 UTC.
Position N 35°46' E 014°23'.

Length 105 m; draft 6 m.

Type: Tanker. MMSI: 215631000.

Date/timePositionNaut miles runAvg speedWind from/ knotsBaromVisibWave heightAir tempDewpointWater temp
2017-Feb-28 04:33N 35°46' E 014°23'7 6.6
2017-Feb-28 03:33N 35°51' E 014°18'6 6.0
2017-Feb-28 02:33N 35°57' E 014°19'0 0.3
2017-Feb-28 01:33N 35°57' E 014°20'0 0.0
2017-Feb-28 00:33N 35°57' E 014°20'0 0.0
2017-Feb-27 23:33N 35°57' E 014°20'0 0.0
2017-Feb-27 22:33N 35°57' E 014°20'3 2.6
2017-Feb-27 21:33N 35°55' E 014°18'6 5.6
2017-Feb-27 20:33N 35°50' E 014°20'6 6.0
2017-Feb-27 19:33N 35°46' E 014°26'7 0.3
2017-Feb-26 23:31N 35°49' E 014°33'2 0.3
2017-Feb-26 17:06N 35°50' E 014°36'0 0.8
2017-Feb-26 16:29N 35°50' E 014°36'0 0.0
2017-Feb-26 15:32N 35°50' E 014°36'0 0.0
2017-Feb-26 14:32N 35°50' E 014°36'0 0.0
2017-Feb-26 13:14N 35°50' E 014°36'0 0.0
2017-Feb-26 12:17N 35°50' E 014°36'0 0.0
2017-Feb-26 11:20N 35°50' E 014°36'0 0.0
2017-Feb-26 10:32N 35°50' E 014°36'0 0.0
2017-Feb-26 09:32N 35°50' E 014°36'0 0.0
2017-Feb-26 08:32N 35°50' E 014°36'0 0.0
2017-Feb-26 07:26N 35°50' E 014°36'1 0.0
2017-Feb-25 16:33N 35°50' E 014°36'0 0.0
2017-Feb-25 15:27N 35°50' E 014°36'0 0.0
2017-Feb-25 14:18N 35°50' E 014°36'0 0.0
2017-Feb-25 13:33N 35°50' E 014°36'0 0.0
2017-Feb-25 10:27N 35°51' E 014°36'0 0.0
2017-Feb-25 04:24N 35°51' E 014°36'1 0.2
2017-Feb-25 00:33N 35°51' E 014°37'7 6.6
2017-Feb-24 23:33N 35°53' E 014°44'2 1.9
2017-Feb-24 22:31N 35°54' E 014°46'0 0.0
2017-Feb-24 21:28N 35°54' E 014°46'0 0.0
2017-Feb-24 20:28N 35°54' E 014°46'0 0.0
2017-Feb-24 19:31N 35°54' E 014°46'0 0.0
2017-Feb-24 18:31N 35°54' E 014°46'1 0.8
2017-Feb-24 17:32N 35°55' E 014°46'0 0.0
2017-Feb-24 16:26N 35°55' E 014°46'0 0.0
2017-Feb-24 15:32N 35°55' E 014°46'0 0.0
2017-Feb-24 14:26N 35°55' E 014°46'0 0.0
2017-Feb-24 13:32N 35°55' E 014°46'0 0.0
2017-Feb-24 12:20N 35°55' E 014°46'0 0.0
2017-Feb-24 10:32N 35°55' E 014°46'0 0.0
2017-Feb-24 09:32N 35°55' E 014°46'0 0.0
2017-Feb-24 08:26N 35°55' E 014°46'5 5.2
2017-Feb-24 07:33N 35°52' E 014°41'7 0.3
2017-Feb-23 09:21N 35°49' E 014°33'5 6.7
2017-Feb-23 08:33N 35°51' E 014°39'6 6.1
2017-Feb-23 07:34N 35°53' E 014°46'0 0.0
2017-Feb-23 06:15N 35°53' E 014°46'0 0.0
2017-Feb-23 05:28N 35°53' E 014°46'0 0.0
2017-Feb-23 02:16N 35°53' E 014°46'0 0.0
2017-Feb-23 01:25N 35°53' E 014°46'3 1.7
2017-Feb-22 23:29N 35°51' E 014°43'7 1.2
2017-Feb-22 18:04N 35°49' E 014°35'0 0.0
2017-Feb-22 16:25N 35°49' E 014°35'6 0.6
2017-Feb-22 05:16N 35°51' E 014°42'5 6.5
2017-Feb-22 04:33N 35°53' E 014°48'0 0.1
2017-Feb-22 00:33N 35°53' E 014°47'1 0.8
2017-Feb-21 23:28N 35°53' E 014°46'0 0.0
2017-Feb-21 22:25N 35°53' E 014°46'0 0.0
2017-Feb-21 21:31N 35°53' E 014°46'0 0.0
2017-Feb-21 20:22N 35°53' E 014°46'0 0.0
2017-Feb-21 19:13N 35°53' E 014°46'0 0.2
2017-Feb-21 17:33N 35°53' E 014°46'2 2.0
2017-Feb-21 16:31N 35°54' E 014°45'0 0.0
2017-Feb-21 15:28N 35°54' E 014°45'0 0.0
2017-Feb-21 14:19N 35°54' E 014°45'0 0.0
2017-Feb-21 13:25N 35°54' E 014°45'0 0.0
2017-Feb-21 12:31N 35°54' E 014°45'0 0.0
2017-Feb-21 11:28N 35°54' E 014°45'0 0.0
2017-Feb-21 07:19N 35°54' E 014°45'0 0.0
2017-Feb-21 06:13N 35°54' E 014°45'4 5.3
2017-Feb-21 05:33N 35°54' E 014°40'6 6.0
2017-Feb-21 04:33N 35°54' E 014°33'1 0.1
2017-Feb-20 15:33N 35°54' E 014°32'3 3.3
2017-Feb-20 14:33N 35°52' E 014°35'2 2.0
2017-Feb-20 13:33N 35°50' E 014°36'0 0.0
2017-Feb-20 12:33N 35°50' E 014°36'0 0.0
2017-Feb-20 11:30N 35°50' E 014°36'0 0.0
2017-Feb-20 10:30N 35°50' E 014°36'0 0.0
2017-Feb-20 09:24N 35°50' E 014°36'0 0.0
2017-Feb-20 08:30N 35°50' E 014°36'0 0.0
2017-Feb-20 07:30N 35°50' E 014°36'0 0.0
2017-Feb-20 06:33N 35°50' E 014°36'0 0.0
2017-Feb-20 05:18N 35°50' E 014°36'0 0.0
2017-Feb-20 04:33N 35°50' E 014°36'0 0.0
2017-Feb-20 03:33N 35°50' E 014°36'0 0.0
2017-Feb-20 02:30N 35°50' E 014°36'0 0.0
2017-Feb-20 01:30N 35°50' E 014°36'0 0.0
2017-Feb-20 00:33N 35°50' E 014°36'0 0.0
2017-Feb-19 23:33N 35°50' E 014°36'0 0.0
2017-Feb-19 22:33N 35°50' E 014°36'0 0.0
2017-Feb-19 21:30N 35°50' E 014°36'0 0.0
2017-Feb-19 20:33N 35°50' E 014°36'0 0.0
2017-Feb-19 19:33N 35°50' E 014°36'0 0.0
2017-Feb-19 18:24N 35°50' E 014°36'0 0.0
2017-Feb-19 17:33N 35°50' E 014°36'0 0.0
2017-Feb-19 16:33N 35°50' E 014°36'4 4.1
2017-Feb-19 15:33N 35°50' E 014°41'6 6.1
2017-Feb-19 14:31N 35°53' E 014°48'0 0.0
2017-Feb-19 07:23N 35°53' E 014°48'0 0.0
2017-Feb-18 23:14N 35°53' E 014°48'6 5.3
2017-Feb-18 22:08N 35°54' E 014°41'4 6.4
2017-Feb-18 21:33N 35°54' E 014°37'4 0.4
2017-Feb-18 10:14N 35°54' E 014°32'1 1.9
2017-Feb-18 09:33N 35°54' E 014°33'5 5.2
2017-Feb-18 08:33N 35°49' E 014°34'  
Track history (hours):
 
Tides and Currents Weather Stations Pressure Air Temp Water Temp Dewpoint Dewpoint Depression Visibility Wind Speed Wind Dir Waves Ship Positions

M/T Vemaoil Xi

Last reported at 2017-Feb-28 04:33 UTC. Time now 2017-Feb-28 05:39 UTC.
Position N 35°46' E 014°23'.

Length 105 m; draft 6 m.

Type: Tanker. MMSI: 215631000.

Date/timePositionNaut miles runAvg speedWind from/ knotsBaromVisibWave heightAir tempDewpointWater temp
2017-Feb-28 04:33N 35°46' E 014°23'7 6.6
2017-Feb-28 03:33N 35°51' E 014°18'6 6.0
2017-Feb-28 02:33N 35°57' E 014°19'0 0.3
2017-Feb-28 01:33N 35°57' E 014°20'0 0.0
2017-Feb-28 00:33N 35°57' E 014°20'0 0.0
2017-Feb-27 23:33N 35°57' E 014°20'0 0.0
2017-Feb-27 22:33N 35°57' E 014°20'3 2.6
2017-Feb-27 21:33N 35°55' E 014°18'6 5.6
2017-Feb-27 20:33N 35°50' E 014°20'6 6.0
2017-Feb-27 19:33N 35°46' E 014°26'7 0.3
2017-Feb-26 23:31N 35°49' E 014°33'2 0.3
2017-Feb-26 17:06N 35°50' E 014°36'0 0.8
2017-Feb-26 16:29N 35°50' E 014°36'0 0.0
2017-Feb-26 15:32N 35°50' E 014°36'0 0.0
2017-Feb-26 14:32N 35°50' E 014°36'0 0.0
2017-Feb-26 13:14N 35°50' E 014°36'0 0.0
2017-Feb-26 12:17N 35°50' E 014°36'0 0.0
2017-Feb-26 11:20N 35°50' E 014°36'0 0.0
2017-Feb-26 10:32N 35°50' E 014°36'0 0.0
2017-Feb-26 09:32N 35°50' E 014°36'0 0.0
2017-Feb-26 08:32N 35°50' E 014°36'0 0.0
2017-Feb-26 07:26N 35°50' E 014°36'1 0.0
2017-Feb-25 16:33N 35°50' E 014°36'0 0.0
2017-Feb-25 15:27N 35°50' E 014°36'0 0.0
2017-Feb-25 14:18N 35°50' E 014°36'0 0.0
2017-Feb-25 13:33N 35°50' E 014°36'0 0.0
2017-Feb-25 10:27N 35°51' E 014°36'0 0.0
2017-Feb-25 04:24N 35°51' E 014°36'1 0.2
2017-Feb-25 00:33N 35°51' E 014°37'7 6.6
2017-Feb-24 23:33N 35°53' E 014°44'2 1.9
2017-Feb-24 22:31N 35°54' E 014°46'0 0.0
2017-Feb-24 21:28N 35°54' E 014°46'0 0.0
2017-Feb-24 20:28N 35°54' E 014°46'0 0.0
2017-Feb-24 19:31N 35°54' E 014°46'0 0.0
2017-Feb-24 18:31N 35°54' E 014°46'1 0.8
2017-Feb-24 17:32N 35°55' E 014°46'0 0.0
2017-Feb-24 16:26N 35°55' E 014°46'0 0.0
2017-Feb-24 15:32N 35°55' E 014°46'0 0.0
2017-Feb-24 14:26N 35°55' E 014°46'0 0.0
2017-Feb-24 13:32N 35°55' E 014°46'0 0.0
2017-Feb-24 12:20N 35°55' E 014°46'0 0.0
2017-Feb-24 10:32N 35°55' E 014°46'0 0.0
2017-Feb-24 09:32N 35°55' E 014°46'0 0.0
2017-Feb-24 08:26N 35°55' E 014°46'5 5.2
2017-Feb-24 07:33N 35°52' E 014°41'7 0.3
2017-Feb-23 09:21N 35°49' E 014°33'5 6.7
2017-Feb-23 08:33N 35°51' E 014°39'6 6.1
2017-Feb-23 07:34N 35°53' E 014°46'0 0.0
2017-Feb-23 06:15N 35°53' E 014°46'0 0.0
2017-Feb-23 05:28N 35°53' E 014°46'0 0.0
2017-Feb-23 02:16N 35°53' E 014°46'0 0.0
2017-Feb-23 01:25N 35°53' E 014°46'3 1.7
2017-Feb-22 23:29N 35°51' E 014°43'7 1.2
2017-Feb-22 18:04N 35°49' E 014°35'0 0.0
2017-Feb-22 16:25N 35°49' E 014°35'6 0.6
2017-Feb-22 05:16N 35°51' E 014°42'5 6.5
2017-Feb-22 04:33N 35°53' E 014°48'0 0.1
2017-Feb-22 00:33N 35°53' E 014°47'1 0.8
2017-Feb-21 23:28N 35°53' E 014°46'0 0.0
2017-Feb-21 22:25N 35°53' E 014°46'0 0.0
2017-Feb-21 21:31N 35°53' E 014°46'0 0.0
2017-Feb-21 20:22N 35°53' E 014°46'0 0.0
2017-Feb-21 19:13N 35°53' E 014°46'0 0.2
2017-Feb-21 17:33N 35°53' E 014°46'2 2.0
2017-Feb-21 16:31N 35°54' E 014°45'0 0.0
2017-Feb-21 15:28N 35°54' E 014°45'0 0.0
2017-Feb-21 14:19N 35°54' E 014°45'0 0.0
2017-Feb-21 13:25N 35°54' E 014°45'0 0.0
2017-Feb-21 12:31N 35°54' E 014°45'0 0.0
2017-Feb-21 11:28N 35°54' E 014°45'0 0.0
2017-Feb-21 07:19N 35°54' E 014°45'0 0.0
2017-Feb-21 06:13N 35°54' E 014°45'4 5.3
2017-Feb-21 05:33N 35°54' E 014°40'6 6.0
2017-Feb-21 04:33N 35°54' E 014°33'1 0.1
2017-Feb-20 15:33N 35°54' E 014°32'3 3.3
2017-Feb-20 14:33N 35°52' E 014°35'2 2.0
2017-Feb-20 13:33N 35°50' E 014°36'0 0.0
2017-Feb-20 12:33N 35°50' E 014°36'0 0.0
2017-Feb-20 11:30N 35°50' E 014°36'0 0.0
2017-Feb-20 10:30N 35°50' E 014°36'0 0.0
2017-Feb-20 09:24N 35°50' E 014°36'0 0.0
2017-Feb-20 08:30N 35°50' E 014°36'0 0.0
2017-Feb-20 07:30N 35°50' E 014°36'0 0.0
2017-Feb-20 06:33N 35°50' E 014°36'0 0.0
2017-Feb-20 05:18N 35°50' E 014°36'0 0.0
2017-Feb-20 04:33N 35°50' E 014°36'0 0.0
2017-Feb-20 03:33N 35°50' E 014°36'0 0.0
2017-Feb-20 02:30N 35°50' E 014°36'0 0.0
2017-Feb-20 01:30N 35°50' E 014°36'0 0.0
2017-Feb-20 00:33N 35°50' E 014°36'0 0.0
2017-Feb-19 23:33N 35°50' E 014°36'0 0.0
2017-Feb-19 22:33N 35°50' E 014°36'0 0.0
2017-Feb-19 21:30N 35°50' E 014°36'0 0.0
2017-Feb-19 20:33N 35°50' E 014°36'0 0.0
2017-Feb-19 19:33N 35°50' E 014°36'0 0.0
2017-Feb-19 18:24N 35°50' E 014°36'0 0.0
2017-Feb-19 17:33N 35°50' E 014°36'0 0.0
2017-Feb-19 16:33N 35°50' E 014°36'4 4.1
2017-Feb-19 15:33N 35°50' E 014°41'6 6.1
2017-Feb-19 14:31N 35°53' E 014°48'0 0.0
2017-Feb-19 07:23N 35°53' E 014°48'0 0.0
2017-Feb-18 23:14N 35°53' E 014°48'6 5.3
2017-Feb-18 22:08N 35°54' E 014°41'4 6.4
2017-Feb-18 21:33N 35°54' E 014°37'4 0.4
2017-Feb-18 10:14N 35°54' E 014°32'1 1.9
2017-Feb-18 09:33N 35°54' E 014°33'5 5.2
2017-Feb-18 08:33N 35°49' E 014°34'  

Dump ship's entire track history